עמוד ראשי
METAR-TAF:

METAR-TAF

שדות תעופה :

Najran, ערב הסעודית

קו רוחב: 17-37N, קו אורך: 044-25E, גובה: 1212מטר

תצפית מזג אוויר נוכחית

הדו"ח נערך לפני 1 שעות ו 1דקות, בשעה 20:00 UTC
רוח רגועה
טמפרטורת 30 צלסיוס
לחות 12%
לחץ 1014 hPa
ראות 10 קילומטר או יותר
ללא עננים שבסיסם נמוך מ 5000 רגל או קומולונימבוס

METAR: OENG 132000Z 00000KT CAVOK 30/M03 Q1014 NOSIG

זמן: 00:01 (21:01 UTC)

תחזית

הדו"ח נערך לפני 10 שעות ו 1דקות, בשעה 11:00 UTC
תחזית בתוקף מ 13 ב 12 UTC עד 14 ב 18 UTC
רוח 8קשר מכיוון מזרח
ראות 10 קילומטר או יותר
ללא עננים שבסיסם נמוך מ 5000 רגל או קומולונימבוס
יעשה מ
13 ב 18 UTC עד 13 ב 20 UTC
רוח 10קשר מכיוון מערב
יעשה מ
14 ב 08 UTC עד 14 ב 10 UTC
רוח 16קשר מכיוון מערב
ראות: 7000מטר
עננים פזורים בגובה 3000רגל

TAF: OENG 131100Z 1312/1418 09008KT CAVOK BECMG 1318/1320 27010KT BECMG 1408/1410 27016KT 7000 SCT030

תצפיות ותחזיות מזג אוויר לגבי יותר מ- 4,000 שדות תעופה ברחבי העולם. דוחות METAR ו- TAF.

התחנות הזמינות מסומנות בנקודות צהובות ואדומות על גבי המפה.

העבר את העכבר לנקודה הצבעונית על מנת לראות את שם התחנה.

לאחר מכן, לחץ כדי לראות את תוכן ואת תחזיות מזג האוויר.

כדי לשנות את המפה: לחץ על הכפתורים הירוקים עם הפלוס השחור כדי להתקרב; על הכפתור הירוק עם המקף כדי להתרחק; או בחיצים הירוקים למפות סמוכות.


METAR-TAF: